Time;durP1;ratioP1;P1;durP2;ratioP2;P2;SDS_P1;SDS_P2;PMS_P1;PMS_P2;Temp;Humidity;BMP_temperature;BMP_pressure;BME280_temperature;BME280_humidity;BME280_pressure;Samples;Min_cycle;Max_cycle;Signal;HPM_P1;HPM_P2
2021/05/11 00:01:32;;;;;;;;;;;;;;;6.18;78.22;100067.34;1821947;78;21222;-76
2021/05/11 00:04:00;;;;;;;;;;;;;;;6.01;80.08;100067.00;1822043;78;20133;-75
2021/05/11 00:06:30;;;;;;;;;;;;;;;5.88;82.45;100063.00;1822296;78;20196;-73
2021/05/11 00:08:59;;;;;;;;;;;;;;;5.75;87.69;100063.35;1822335;78;20608;-74
2021/05/11 00:11:28;;;;;;;;;;;;;;;5.64;87.74;100056.03;1822066;78;20128;-76
2021/05/11 00:13:56;;;;;;;;;;;;;;;5.62;88.28;100059.41;1822155;78;21254;-73
2021/05/11 00:16:24;;;;;;;;;;;;;;;5.52;88.38;100058.50;1822089;78;20148;-76
2021/05/11 00:18:52;;;;;;;;;;;;;;;5.40;90.77;100056.17;1822242;78;20152;-76
2021/05/11 00:21:22;;;;;;;;;;;;;;;5.22;93.05;100048.00;1828247;78;20148;-74
2021/05/11 00:23:49;;;;;;;;;;;;;;;4.98;95.89;100046.80;1827748;78;20144;-74
2021/05/11 00:26:17;;;;;;;;;;;;;;;4.92;96.73;100047.94;1827753;78;21807;-74
2021/05/11 00:28:45;;;;;;;;;;;;;;;4.94;99.01;100046.38;1827822;78;20129;-75
2021/05/11 00:31:12;;;;;;;;;;;;;;;5.04;95.53;100044.64;1827663;78;20494;-74
2021/05/11 00:33:40;;;;;;;;;;;;;;;5.19;93.59;100049.23;1827834;78;20544;-73
2021/05/11 00:36:08;;;;;;;;;;;;;;;5.26;92.74;100046.56;1828019;78;20137;-76
2021/05/11 00:38:37;;;;;;;;;;;;;;;5.24;93.53;100047.28;1827721;78;20220;-76
2021/05/11 00:41:06;;;;;;;;;;;;;;;5.15;93.48;100044.84;1815650;78;20134;-74
2021/05/11 00:44:16;;;;;;;;;;;;;;;5.05;97.64;100039.64;1768240;80;20143;-75
2021/05/11 00:46:54;;;;;;;;;;;;;;;4.81;99.25;100037.08;1796358;80;20219;-74
2021/05/11 00:49:16;;;;;;;;;;;;;;;4.60;100.00;100032.23;1795309;80;20222;-75
2021/05/11 00:51:44;;;;;;;;;;;;;;;4.43;100.00;100029.66;1795153;80;21353;-74
2021/05/11 00:54:11;;;;;;;;;;;;;;;4.25;100.00;100029.72;1795205;80;20536;-75
2021/05/11 00:56:40;;;;;;;;;;;;;;;4.11;100.00;100028.56;1795303;80;20597;-77
2021/05/11 00:59:13;;;;;;;;;;;;;;;4.05;100.00;100024.88;1795186;80;20150;-75
2021/05/11 01:01:40;;;;;;;;;;;;;;;4.07;100.00;100027.64;1795286;80;20162;-76
2021/05/11 01:04:08;;;;;;;;;;;;;;;4.05;100.00;100025.69;1792791;80;21209;-73
2021/05/11 01:06:38;;;;;;;;;;;;;;;4.03;100.00;100025.06;1795285;80;20233;-73
2021/05/11 01:09:07;;;;;;;;;;;;;;;3.98;100.00;100017.39;1795442;80;20147;-73
2021/05/11 01:11:38;;;;;;;;;;;;;;;3.92;100.00;100017.69;1796197;80;20167;-74
2021/05/11 01:14:05;;;;;;;;;;;;;;;3.84;100.00;100024.48;1796049;80;20135;-76
2021/05/11 01:16:34;;;;;;;;;;;;;;;3.64;100.00;100027.05;1795676;80;21198;-76
2021/05/11 01:19:11;;;;;;;;;;;;;;;3.54;100.00;100021.28;1795634;80;20559;-74
2021/05/11 01:21:46;;;;;;;;;;;;;;;3.56;100.00;100019.26;1794841;80;20154;-77
2021/05/11 01:24:12;;;;;;;;;;;;;;;3.55;100.00;100024.23;1794246;80;20115;-74
2021/05/11 01:32:17;;;;;;;;;;;;;;;3.26;100.00;100023.96;1796274;80;20143;-74
2021/05/11 01:50:45;;;;;;;;;;;;;;;2.94;100.00;100027.03;1795692;80;20142;-75
2021/05/11 01:53:37;;;;;;;;;;;;;;;2.81;100.00;100022.11;1795168;79;20242;-74
2021/05/11 01:55:58;;;;;;;;;;;;;;;2.75;100.00;100023.70;1792502;80;21205;-74
2021/05/11 01:58:47;;;;;;;;;;;;;;;2.70;100.00;100018.98;1792469;80;20111;-75
2021/05/11 02:22:34;;;;;;;;;;;;;;;2.72;100.00;100010.33;1773356;80;20143;-75
2021/05/11 02:23:01;;;;;;;;;;;;;;;2.57;100.00;100013.55;1752784;82;21302;-75
2021/05/11 02:25:29;;;;;;;;;;;;;;;2.52;100.00;100007.52;1753089;82;20307;-76
2021/05/11 02:28:00;;;;;;;;;;;;;;;2.53;100.00;100007.00;1753616;82;20256;-77
2021/05/11 02:30:29;;;;;;;;;;;;;;;2.46;100.00;100008.25;1753561;82;20322;-76
2021/05/11 02:32:57;;;;;;;;;;;;;;;2.35;100.00;100015.38;1753423;82;20281;-77
2021/05/11 02:35:25;;;;;;;;;;;;;;;2.24;100.00;100011.91;1753250;82;21268;-77
2021/05/11 02:37:53;;;;;;;;;;;;;;;2.21;100.00;100019.73;1752853;82;20162;-76
2021/05/11 02:40:22;;;;;;;;;;;;;;;2.27;100.00;100014.99;1752904;82;20186;-77
2021/05/11 02:42:54;;;;;;;;;;;;;;;2.29;100.00;100010.33;1752872;82;20257;-77
2021/05/11 02:45:21;;;;;;;;;;;;;;;2.32;100.00;100012.59;1752376;82;20547;-76
2021/05/11 02:47:49;;;;;;;;;;;;;;;2.29;100.00;100012.17;1752578;82;21273;-75
2021/05/11 02:50:21;;;;;;;;;;;;;;;2.30;100.00;100008.02;1752661;82;20300;-76
2021/05/11 02:52:49;;;;;;;;;;;;;;;2.42;100.00;100010.95;1752769;82;20229;-77
2021/05/11 02:55:18;;;;;;;;;;;;;;;2.61;100.00;100016.13;1752626;82;20273;-78
2021/05/11 02:57:48;;;;;;;;;;;;;;;2.74;100.00;100018.92;1753064;80;20284;-77
2021/05/11 03:00:19;;;;;;;;;;;;;;;2.88;100.00;100016.36;1788341;80;22148;-77
2021/05/11 03:02:49;;;;;;;;;;;;;;;3.00;100.00;100016.15;1785560;80;20337;-77
2021/05/11 03:05:21;;;;;;;;;;;;;;;3.11;100.00;100014.78;1789652;80;20139;-77
2021/05/11 03:07:52;;;;;;;;;;;;;;;3.20;100.00;100018.94;1787576;80;20141;-77
2021/05/11 03:10:22;;;;;;;;;;;;;;;3.30;100.00;100014.09;1789698;80;20163;-77
2021/05/11 03:12:50;;;;;;;;;;;;;;;3.54;100.00;100016.78;1759560;80;20623;-74
2021/05/11 03:15:17;;;;;;;;;;;;;;;3.75;100.00;100019.86;1789574;80;20768;-74
2021/05/11 03:17:46;;;;;;;;;;;;;;;4.03;100.00;100021.08;1789549;80;20111;-74
2021/05/11 03:20:14;;;;;;;;;;;;;;;4.25;100.00;100026.26;1790066;80;20160;-73
2021/05/11 03:22:42;;;;;;;;;;;;;;;4.38;100.00;100024.94;1792983;80;20182;-73
2021/05/11 03:25:11;;;;;;;;;;;;;;;4.57;100.00;100026.00;1792952;80;21308;-73
2021/05/11 03:27:39;;;;;;;;;;;;;;;4.87;100.00;100026.94;1792905;80;20281;-73
2021/05/11 03:30:08;;;;;;;;;;;;;;;5.09;100.00;100020.89;1792918;80;20111;-72
2021/05/11 03:32:35;;;;;;;;;;;;;;;5.28;100.00;100024.04;1792921;80;20155;-73
2021/05/11 03:35:04;;;;;;;;;;;;;;;5.45;100.00;100023.09;1793000;80;20513;-73
2021/05/11 03:37:32;;;;;;;;;;;;;;;5.57;100.00;100020.61;1792941;80;21664;-73
2021/05/11 03:40:00;;;;;;;;;;;;;;;5.69;100.00;100014.94;1792835;80;20214;-73
2021/05/11 03:42:33;;;;;;;;;;;;;;;5.86;100.00;100019.28;1792965;80;20257;-74
2021/05/11 03:45:01;;;;;;;;;;;;;;;6.06;100.00;100023.21;1792622;80;20163;-73
2021/05/11 03:47:44;;;;;;;;;;;;;;;6.38;100.00;100029.91;1889957;76;20242;-72
2021/05/11 03:50:15;;;;;;;;;;;;;;;6.63;100.00;100025.42;1855014;77;20249;-74
2021/05/11 03:52:50;;;;;;;;;;;;;;;6.97;100.00;100031.32;1854979;77;20174;-72
2021/05/11 03:55:26;;;;;;;;;;;;;;;7.31;100.00;100027.84;1855028;77;20253;-74
2021/05/11 03:58:01;;;;;;;;;;;;;;;7.70;100.00;100030.61;1855035;77;20244;-73
2021/05/11 04:00:43;;;;;;;;;;;;;;;8.10;99.63;100026.63;1853495;77;20240;-71
2021/05/11 04:03:19;;;;;;;;;;;;;;;8.42;93.99;100026.44;1855051;77;20225;-72
2021/05/11 04:05:55;;;;;;;;;;;;;;;8.68;88.86;100026.05;1855034;77;20248;-74
2021/05/11 04:08:37;;;;;;;;;;;;;;;8.86;82.75;100029.68;1854996;77;20236;-74
2021/05/11 04:11:30;;;;;;;;;;;;;;;8.99;80.56;100034.80;1855075;77;20142;-74
2021/05/11 04:14:16;;;;;;;;;;;;;;;9.22;80.16;100033.48;1854991;77;20197;-75
2021/05/11 04:16:38;;;;;;;;;;;;;;;9.53;77.14;100040.05;1853561;77;20708;-72
2021/05/11 04:19:13;;;;;;;;;;;;;;;9.78;72.73;100045.97;1853661;77;20256;-72
2021/05/11 04:21:48;;;;;;;;;;;;;;;9.84;69.88;100045.00;1853592;77;20241;-72
2021/05/11 04:24:29;;;;;;;;;;;;;;;9.89;71.63;100044.30;1855058;77;20197;-71
2021/05/11 04:27:05;;;;;;;;;;;;;;;10.02;72.14;100046.73;1854987;77;20225;-74
2021/05/11 04:29:40;;;;;;;;;;;;;;;10.21;71.17;100052.70;1854988;77;20233;-72
2021/05/11 04:32:16;;;;;;;;;;;;;;;10.43;71.16;100056.91;1855062;77;20194;-73
2021/05/11 04:34:58;;;;;;;;;;;;;;;10.69;71.11;100059.53;1855035;77;20206;-72
2021/05/11 04:37:33;;;;;;;;;;;;;;;10.98;68.17;100051.95;1853607;77;20177;-74
2021/05/11 04:40:09;;;;;;;;;;;;;;;11.10;66.67;100050.81;1855013;77;20284;-73
2021/05/11 04:42:51;;;;;;;;;;;;;;;11.28;67.29;100048.39;1855002;77;20323;-72
2021/05/11 04:45:34;;;;;;;;;;;;;;;11.51;66.35;100047.39;1853573;77;20209;-71
2021/05/11 04:48:09;;;;;;;;;;;;;;;11.78;64.38;100052.86;1853644;77;20150;-74
2021/05/11 04:50:45;;;;;;;;;;;;;;;11.97;62.69;100049.88;1853554;77;20225;-72
2021/05/11 04:53:33;;;;;;;;;;;;;;;12.18;63.00;100054.98;1854742;77;20173;-73
2021/05/11 05:09:33;;;;;;;;;;;;;;;13.16;62.54;100061.55;1728059;81;91806;-72
2021/05/11 05:38:25;;;;;;;;;;;;;;;14.70;44.99;100054.14;1639264;82;20517;-73
2021/05/11 05:58:46;;;;;;;;;;;;;;;16.24;39.21;100053.31;1616675;86;20273;-72
2021/05/11 06:01:27;;;;;;;;;;;;;;;16.74;40.23;100053.30;1852490;77;20252;-69
2021/05/11 06:04:12;;;;;;;;;;;;;;;17.05;35.02;100060.64;1837591;77;20235;-72
2021/05/11 06:06:48;;;;;;;;;;;;;;;17.15;36.39;100056.52;1854253;77;20731;-70
2021/05/11 06:09:25;;;;;;;;;;;;;;;17.44;35.13;100052.96;1852805;77;20197;-72
2021/05/11 06:12:07;;;;;;;;;;;;;;;17.60;34.22;100054.98;1852959;77;20249;-70
2021/05/11 06:17:27;;;;;;;;;;;;;;;17.78;32.44;100063.20;1852045;77;20280;-71
2021/05/11 06:20:04;;;;;;;;;;;;;;;17.72;31.92;100054.03;1854540;77;20157;-71
2021/05/11 06:22:39;;;;;;;;;;;;;;;17.79;30.97;100053.14;1853795;77;20375;-70
2021/05/11 06:25:16;;;;;;;;;;;;;;;17.65;31.31;100050.30;1890787;76;20187;-72
2021/05/11 06:27:57;;;;;;;;;;;;;;;17.68;31.41;100053.78;1914048;74;20232;-70
2021/05/11 06:30:40;;;;;;;;;;;;;;;17.80;29.77;100052.06;1852843;77;20185;-68
2021/05/11 06:33:21;;;;;;;;;;;;;;;17.93;30.23;100045.11;1852777;77;20288;-70
2021/05/11 06:36:02;;;;;;;;;;;;;;;18.06;29.39;100040.34;1851311;77;20182;-70
2021/05/11 06:38:39;;;;;;;;;;;;;;;18.24;29.28;100033.30;1852239;77;20194;-70
2021/05/11 06:41:20;;;;;;;;;;;;;;;18.32;29.57;100033.19;1854205;77;20367;-71
2021/05/11 06:44:01;;;;;;;;;;;;;;;18.29;30.52;100033.23;1854258;77;20228;-71
2021/05/11 06:55:07;;;;;;;;;;;;;;;19.02;29.26;100027.78;1854620;77;20248;-69
2021/05/11 06:57:43;;;;;;;;;;;;;;;19.01;29.23;100022.63;1852805;77;20763;-70
2021/05/11 07:00:19;;;;;;;;;;;;;;;19.06;27.36;100016.56;1854645;77;20201;-71
2021/05/11 07:02:54;;;;;;;;;;;;;;;19.14;27.25;100014.27;1853662;77;20181;-71
2021/05/11 07:05:36;;;;;;;;;;;;;;;19.21;27.21;100013.32;1852986;77;20244;-69
2021/05/11 07:08:16;;;;;;;;;;;;;;;19.33;27.92;100018.25;1854120;77;20264;-71
2021/05/11 07:10:53;;;;;;;;;;;;;;;19.16;27.94;100014.22;1854488;77;20224;-70
2021/05/11 07:13:27;;;;;;;;;;;;;;;19.24;27.12;100014.88;1854593;77;20677;-71
2021/05/11 07:16:02;;;;;;;;;;;;;;;19.37;26.08;100000.22;1854384;77;20213;-71
2021/05/11 07:18:37;;;;;;;;;;;;;;;19.36;26.25;99993.98;1854259;77;20213;-71
2021/05/11 07:21:19;;;;;;;;;;;;;;;19.46;27.61;99998.42;1854040;77;20236;-69
2021/05/11 07:23:54;;;;;;;;;;;;;;;19.44;25.56;100002.79;1854591;77;20245;-71
2021/05/11 07:26:30;;;;;;;;;;;;;;;19.80;26.64;100002.12;1853080;77;20300;-71
2021/05/11 07:31:53;;;;;;;;;;;;;;;19.74;24.40;100012.84;1853146;77;20242;-70
2021/05/11 07:34:29;;;;;;;;;;;;;;;19.59;24.65;100003.05;1852949;77;20201;-71
2021/05/11 07:37:11;;;;;;;;;;;;;;;19.28;24.57;99992.77;1854286;77;20272;-70
2021/05/11 07:40:07;;;;;;;;;;;;;;;19.00;24.90;99990.53;1832323;77;20232;-71
2021/05/11 07:42:48;;;;;;;;;;;;;;;19.04;25.06;99986.13;1854256;77;20347;-70
2021/05/11 07:51:39;;;;;;;;;;;;;;;19.64;24.61;99984.44;1853388;77;20182;-70
2021/05/11 08:16:45;;;;;;;;;;;;;;;19.86;25.40;99973.64;1853920;77;20311;-71
2021/05/11 08:27:57;;;;;;;;;;;;;;;20.46;23.39;99961.67;1854222;77;20217;-71
2021/05/11 08:30:33;;;;;;;;;;;;;;;20.52;23.17;99954.96;1854423;77;20190;-69
2021/05/11 08:33:14;;;;;;;;;;;;;;;20.60;22.76;99954.00;1852737;77;20323;-71
2021/05/11 08:35:50;;;;;;;;;;;;;;;20.58;22.75;99955.70;1854215;77;20216;-72
2021/05/11 08:38:25;;;;;;;;;;;;;;;20.64;23.62;99957.16;1854269;77;20307;-70
2021/05/11 08:41:01;;;;;;;;;;;;;;;20.81;23.46;99947.48;1853024;77;20201;-70
2021/05/11 08:43:44;;;;;;;;;;;;;;;20.75;22.53;99948.98;1852140;77;20225;-70
2021/05/11 08:46:27;;;;;;;;;;;;;;;20.67;23.44;99944.27;1853036;77;20331;-71
2021/05/11 08:49:05;;;;;;;;;;;;;;;20.72;23.94;99937.31;1854412;77;20280;-70
2021/05/11 09:00:01;;;;;;;;;;;;;;;20.61;23.30;99933.25;1854324;76;20253;-70
2021/05/11 09:04:34;;;;;;;;;;;;;;;20.88;23.73;99927.39;1854516;77;20185;-72
2021/05/11 09:28:51;;;;;;;;;;;;;;;22.07;22.56;99916.84;1853102;77;20295;-71
2021/05/11 09:31:42;;;;;;;;;;;;;;;22.19;22.26;99915.64;1852782;77;20244;-70
2021/05/11 09:34:53;;;;;;;;;;;;;;;22.40;22.87;99902.72;1836543;77;20248;-70
2021/05/11 09:54:13;;;;;;;;;;;;;;;22.69;23.58;99894.60;1852893;77;20256;-69
2021/05/11 09:55:06;;;;;;;;;;;;;;;23.09;22.47;99880.63;1854187;77;20240;-71
2021/05/11 10:46:57;;;;;;;;;;;;;;;23.44;22.92;99836.59;1888169;75;20347;-71
2021/05/11 10:49:38;;;;;;;;;;;;;;;23.29;23.86;99833.09;1852676;77;20181;-71
2021/05/11 10:55:12;;;;;;;;;;;;;;;23.83;23.33;99822.80;1852216;77;20347;-70
2021/05/11 11:03:27;;;;;;;;;;;;;;;23.49;23.32;99835.06;1853488;77;20339;-70
2021/05/11 11:06:07;;;;;;;;;;;;;;;23.62;23.39;99834.55;1852914;77;20232;-71
2021/05/11 11:08:49;;;;;;;;;;;;;;;23.83;23.25;99829.65;1852016;77;20268;-70
2021/05/11 11:11:25;;;;;;;;;;;;;;;23.86;23.92;99834.45;1854482;77;20272;-71
2021/05/11 11:14:06;;;;;;;;;;;;;;;23.81;24.67;99831.34;1854549;77;20217;-72
2021/05/11 11:16:41;;;;;;;;;;;;;;;23.72;23.14;99830.61;1854600;77;20229;-71
2021/05/11 11:19:17;;;;;;;;;;;;;;;23.81;23.49;99829.18;1854455;77;20213;-71
2021/05/11 11:24:37;;;;;;;;;;;;;;;24.05;23.59;99822.42;1854231;77;20264;-71
2021/05/11 11:27:12;;;;;;;;;;;;;;;23.89;23.65;99820.09;1854474;77;20264;-71
2021/05/11 11:29:47;;;;;;;;;;;;;;;23.88;25.12;99811.63;1854173;77;20268;-71
2021/05/11 11:32:27;;;;;;;;;;;;;;;24.13;24.53;99809.22;1843857;76;20232;-70
2021/05/11 11:35:03;;;;;;;;;;;;;;;24.48;24.01;99800.63;1853463;77;20295;-71
2021/05/11 11:37:39;;;;;;;;;;;;;;;24.37;24.40;99799.42;1854469;76;20209;-72
2021/05/11 11:40:16;;;;;;;;;;;;;;;24.29;25.46;99795.64;1853104;77;20327;-71
2021/05/11 11:42:54;;;;;;;;;;;;;;;24.30;24.05;99796.44;1835610;77;20710;-71
2021/05/11 11:45:32;;;;;;;;;;;;;;;24.28;25.03;99795.42;1825500;77;20698;-71
2021/05/11 11:48:23;;;;;;;;;;;;;;;;;;;;;
2021/05/11 11:51:09;;;;;;;;;;;;;;;24.65;24.76;99790.02;1831388;77;20194;-71
2021/05/11 11:53:46;;;;;;;;;;;;;;;24.65;24.37;99777.66;1826318;77;20687;-72
2021/05/11 11:59:14;;;;;;;;;;;;;;;24.76;24.67;99764.27;1824366;77;20278;-70
2021/05/11 12:01:55;;;;;;;;;;;;;;;24.61;25.03;99765.77;1846929;76;20639;-73
2021/05/11 12:04:31;;;;;;;;;;;;;;;24.57;25.45;99764.29;1846432;76;20324;-72
2021/05/11 12:07:28;;;;;;;;;;;;;;;;;;;;;
2021/05/11 12:10:05;;;;;;;;;;;;;;;24.45;25.51;99766.17;1853954;77;20213;-72
2021/05/11 12:12:40;;;;;;;;;;;;;;;24.56;25.11;99765.41;1853345;77;20201;-73
2021/05/11 12:15:35;;;;;;;;;;;;;;;24.47;25.47;99756.48;1826235;77;20280;-72
2021/05/11 12:18:16;;;;;;;;;;;;;;;24.70;25.14;99758.22;1833659;76;20191;-70
2021/05/11 12:21:00;;;;;;;;;;;;;;;24.92;25.24;99758.32;1828623;77;20298;-70
2021/05/11 12:23:43;;;;;;;;;;;;;;;24.88;25.15;99758.77;1864236;75;20280;-71
2021/05/11 12:26:19;;;;;;;;;;;;;;;24.48;25.24;99763.59;1826112;77;20283;-72
2021/05/11 12:29:20;;;;;;;;;;;;;;;24.42;26.20;99754.52;1818011;77;20660;-73
2021/05/11 12:31:57;;;;;;;;;;;;;;;24.46;25.31;99756.84;1832511;77;21340;-73
2021/05/11 12:34:45;;;;;;;;;;;;;;;24.63;25.87;99744.85;1827330;77;20268;-72
2021/05/11 12:37:43;;;;;;;;;;;;;;;24.89;25.17;99734.31;1830009;77;20833;-73
2021/05/11 12:40:30;;;;;;;;;;;;;;;24.53;25.30;99734.55;1825784;77;20165;-71
2021/05/11 12:43:07;;;;;;;;;;;;;;;24.53;26.32;99733.76;1831369;77;20724;-72
2021/05/11 12:45:50;;;;;;;;;;;;;;;24.60;25.65;99733.98;1829026;77;20860;-73
2021/05/11 12:48:25;;;;;;;;;;;;;;;24.99;25.51;99725.59;1829068;76;20265;-72
2021/05/11 12:51:01;;;;;;;;;;;;;;;25.33;25.31;99732.27;1830498;77;20267;-72
2021/05/11 12:53:46;;;;;;;;;;;;;;;25.13;25.30;99725.78;1836263;76;20252;-74
2021/05/11 13:17:09;;;;;;;;;;;;;;;25.22;25.56;99699.02;1875445;76;20252;-73
2021/05/11 13:22:37;;;;;;;;;;;;;;;25.11;25.27;99691.82;1853604;76;20378;-71
2021/05/11 13:25:29;;;;;;;;;;;;;;;24.93;25.16;99694.02;1854129;77;20197;-72
2021/05/11 13:31:06;;;;;;;;;;;;;;;25.01;25.60;99684.05;1852821;77;20213;-72
2021/05/11 13:36:45;;;;;;;;;;;;;;;25.12;25.90;99678.30;1853654;76;20393;-69
2021/05/11 13:39:30;;;;;;;;;;;;;;;25.29;26.23;99673.13;1851734;76;20749;-74
2021/05/11 13:42:27;;;;;;;;;;;;;;;25.61;26.35;99672.63;1823914;78;20275;-73
2021/05/11 13:45:38;;;;;;;;;;;;;;;25.57;25.52;99673.09;1766128;79;20785;-74
2021/05/11 14:04:41;;;;;;;;;;;;;;;26.27;25.75;99646.42;1853546;77;20185;-70
2021/05/11 14:07:17;;;;;;;;;;;;;;;26.00;25.31;99644.00;1852542;77;20800;-74
2021/05/11 14:09:52;;;;;;;;;;;;;;;25.79;25.48;99646.97;1853751;77;20197;-73
2021/05/11 14:12:27;;;;;;;;;;;;;;;25.70;25.64;99648.28;1853537;77;20221;-73
2021/05/11 14:15:05;;;;;;;;;;;;;;;25.84;25.89;99642.58;1852698;77;20190;-71
2021/05/11 14:17:44;;;;;;;;;;;;;;;25.73;25.83;99637.41;1854307;77;20221;-74
2021/05/11 14:20:22;;;;;;;;;;;;;;;25.41;26.07;99641.47;1852882;77;20327;-75
2021/05/11 14:23:04;;;;;;;;;;;;;;;25.35;26.10;99647.56;1853967;77;20300;-71
2021/05/11 14:25:39;;;;;;;;;;;;;;;25.45;26.51;99638.26;1853630;77;20280;-72
2021/05/11 14:28:15;;;;;;;;;;;;;;;25.65;26.04;99639.75;1853052;77;20323;-73
2021/05/11 14:30:56;;;;;;;;;;;;;;;25.69;26.55;99637.88;1852356;77;20225;-72
2021/05/11 14:33:31;;;;;;;;;;;;;;;25.65;26.85;99635.63;1854306;77;20178;-71
2021/05/11 14:36:09;;;;;;;;;;;;;;;25.81;25.95;99631.51;1852058;77;20178;-71
2021/05/11 14:38:44;;;;;;;;;;;;;;;25.69;25.83;99634.33;1854226;77;20193;-70
2021/05/11 14:41:19;;;;;;;;;;;;;;;25.68;25.90;99628.63;1834319;77;20986;-71
2021/05/11 14:43:54;;;;;;;;;;;;;;;25.81;26.77;99624.05;1850417;77;20189;-71
2021/05/11 14:46:30;;;;;;;;;;;;;;;25.98;26.12;99622.92;1851133;76;20230;-71
2021/05/11 14:49:05;;;;;;;;;;;;;;;26.15;25.59;99620.39;1841785;77;20255;-72
2021/05/11 14:51:40;;;;;;;;;;;;;;;26.00;25.90;99615.71;1825528;77;20273;-71
2021/05/11 14:54:16;;;;;;;;;;;;;;;26.21;26.27;99617.60;1837771;77;20219;-69
2021/05/11 14:56:52;;;;;;;;;;;;;;;26.16;25.69;99617.05;1852196;77;20288;-72
2021/05/11 14:59:46;;;;;;;;;;;;;;;25.75;25.39;99613.11;1834585;77;20533;-70
2021/05/11 15:02:21;;;;;;;;;;;;;;;25.48;25.79;99611.20;1852697;77;20759;-70
2021/05/11 15:04:56;;;;;;;;;;;;;;;25.58;26.41;99620.33;1852801;77;20224;-70
2021/05/11 15:07:33;;;;;;;;;;;;;;;25.69;26.38;99611.77;1851582;77;20236;-71
2021/05/11 15:10:11;;;;;;;;;;;;;;;25.72;26.16;99601.42;1852713;77;20303;-72
2021/05/11 15:23:10;;;;;;;;;;;;;;;25.54;26.26;99591.36;1760575;79;20329;-72
2021/05/11 15:25:52;;;;;;;;;;;;;;;25.66;26.68;99587.16;1825723;77;20271;-71
2021/05/11 15:28:28;;;;;;;;;;;;;;;25.73;26.21;99592.62;1851664;77;20268;-70
2021/05/11 15:31:04;;;;;;;;;;;;;;;25.54;26.17;99587.23;1851136;77;20342;-70
2021/05/11 15:33:46;;;;;;;;;;;;;;;25.44;26.44;99583.06;1849412;75;20235;-70
2021/05/11 15:36:23;;;;;;;;;;;;;;;25.30;26.32;99583.27;1825480;77;20282;-70
2021/05/11 15:38:58;;;;;;;;;;;;;;;25.14;26.23;99577.14;1840323;77;20185;-72
2021/05/11 15:41:35;;;;;;;;;;;;;;;25.17;27.00;99583.33;1852459;77;20177;-70
2021/05/11 15:44:10;;;;;;;;;;;;;;;25.23;26.95;99577.82;1852806;77;20272;-73
2021/05/11 15:46:45;;;;;;;;;;;;;;;25.29;26.82;99574.81;1832738;77;20198;-71
2021/05/11 15:49:20;;;;;;;;;;;;;;;25.17;27.25;99578.42;1824696;77;20294;-72
2021/05/11 15:52:16;;;;;;;;;;;;;;;24.85;27.17;99567.90;1862301;75;20230;-73
2021/05/11 15:54:52;;;;;;;;;;;;;;;24.81;27.47;99576.80;1827375;77;20258;-71
2021/05/11 15:57:29;;;;;;;;;;;;;;;24.83;28.02;99572.35;1832215;77;20235;-71
2021/05/11 16:00:10;;;;;;;;;;;;;;;24.76;27.47;99566.66;1828382;77;20199;-71
2021/05/11 16:02:47;;;;;;;;;;;;;;;24.78;28.54;99569.86;1853163;77;20225;-71
2021/05/11 16:05:38;;;;;;;;;;;;;;;24.86;28.69;99568.90;1852829;77;20193;-71
2021/05/11 16:08:16;;;;;;;;;;;;;;;24.81;27.88;99564.45;1852457;77;20284;-71
2021/05/11 16:10:52;;;;;;;;;;;;;;;24.73;28.48;99570.11;1853041;77;20225;-71
2021/05/11 16:13:27;;;;;;;;;;;;;;;24.65;28.55;99571.05;1852825;77;20930;-71
2021/05/11 16:16:04;;;;;;;;;;;;;;;24.49;28.43;99579.99;1851839;77;20272;-70
2021/05/11 16:18:39;;;;;;;;;;;;;;;24.35;28.83;99568.00;1851327;77;20271;-69
2021/05/11 16:21:14;;;;;;;;;;;;;;;24.27;29.02;99568.12;1883335;76;20214;-72
2021/05/11 16:23:55;;;;;;;;;;;;;;;24.20;29.09;99559.67;1851566;76;20197;-69
2021/05/11 16:26:31;;;;;;;;;;;;;;;24.06;29.42;99561.42;1853563;77;20244;-70
2021/05/11 16:29:06;;;;;;;;;;;;;;;24.04;30.21;99566.44;1854437;77;20253;-71
2021/05/11 16:31:48;;;;;;;;;;;;;;;23.96;30.29;99558.56;1854252;77;20217;-69
2021/05/11 16:34:23;;;;;;;;;;;;;;;23.81;30.37;99559.23;1853074;77;20252;-70
2021/05/11 16:37:02;;;;;;;;;;;;;;;23.71;30.93;99559.08;1852867;77;20193;-72
2021/05/11 16:39:36;;;;;;;;;;;;;;;23.62;31.12;99557.83;1854447;77;20240;-73
2021/05/11 16:42:17;;;;;;;;;;;;;;;23.49;31.12;99553.46;1854437;77;20355;-69
2021/05/11 16:55:43;;;;;;;;;;;;;;;22.13;34.06;99558.06;1717590;77;20219;-71
2021/05/11 16:58:19;;;;;;;;;;;;;;;22.04;34.53;99561.63;1854394;77;20264;-72
2021/05/11 17:00:54;;;;;;;;;;;;;;;21.84;34.94;99556.36;1852919;77;20205;-70
2021/05/11 17:03:29;;;;;;;;;;;;;;;21.72;35.21;99557.61;1854234;77;20268;-69
2021/05/11 17:06:12;;;;;;;;;;;;;;;21.56;35.23;99556.58;1853409;77;20209;-72
2021/05/11 17:08:47;;;;;;;;;;;;;;;21.43;35.56;99553.47;1852972;77;21240;-70
2021/05/11 17:11:23;;;;;;;;;;;;;;;21.38;35.79;99553.84;1853815;77;20291;-71
2021/05/11 17:14:03;;;;;;;;;;;;;;;21.30;35.92;99551.16;1852715;77;20306;-73
2021/05/11 17:16:41;;;;;;;;;;;;;;;21.20;36.24;99550.37;1854391;77;20166;-74
2021/05/11 17:19:16;;;;;;;;;;;;;;;21.07;36.51;99547.27;1853036;77;20233;-69
2021/05/11 17:21:52;;;;;;;;;;;;;;;20.93;36.87;99546.08;1853913;77;20217;-71
2021/05/11 17:24:27;;;;;;;;;;;;;;;20.79;37.67;99555.00;1851421;77;20331;-73
2021/05/11 17:27:02;;;;;;;;;;;;;;;20.58;38.54;99556.22;1828049;77;20271;-71
2021/05/11 17:29:57;;;;;;;;;;;;;;;20.32;38.86;99558.87;1836195;77;20243;-71
2021/05/11 17:32:36;;;;;;;;;;;;;;;20.16;39.58;99557.15;1844301;77;20273;-70
2021/05/11 17:35:37;;;;;;;;;;;;;;;20.01;40.54;99561.69;1887828;74;20291;-73
2021/05/11 18:15:21;;;;;;;;;;;;;;;18.52;44.88;99531.44;1724283;77;20272;-71
2021/05/11 18:32:01;;;;;;;;;;;;;;;18.72;43.57;99538.88;1467065;92;20164;-72
2021/05/11 18:34:38;;;;;;;;;;;;;;;18.70;44.47;99531.02;1537887;89;20193;-72
2021/05/11 18:39:56;;;;;;;;;;;;;;;18.43;44.85;99524.56;1537349;89;20174;-72
2021/05/11 18:43:30;;;;;;;;;;;;;;;18.24;45.77;99533.97;1857949;75;20240;-71
2021/05/11 18:45:56;;;;;;;;;;;;;;;18.06;46.70;99531.64;1809950;78;20220;-73
2021/05/11 18:48:24;;;;;;;;;;;;;;;17.93;46.85;99532.72;1809679;78;21082;-72
2021/05/11 18:50:50;;;;;;;;;;;;;;;17.77;48.36;99526.73;1803388;78;20220;-72
2021/05/11 18:53:17;;;;;;;;;;;;;;;17.61;48.75;99518.64;1820194;79;20141;-73
2021/05/11 18:55:45;;;;;;;;;;;;;;;17.56;48.72;99525.52;1810109;78;20185;-73
2021/05/11 18:58:11;;;;;;;;;;;;;;;17.41;49.28;99523.10;1805191;78;20125;-73
2021/05/11 19:00:38;;;;;;;;;;;;;;;17.30;49.97;99526.01;1809872;78;21082;-73
2021/05/11 19:03:05;;;;;;;;;;;;;;;17.18;50.49;99520.26;1808922;78;20208;-73
2021/05/11 19:05:32;;;;;;;;;;;;;;;17.09;51.01;99516.06;1811904;78;20141;-71
2021/05/11 19:08:01;;;;;;;;;;;;;;;17.04;51.16;99508.57;1812483;77;20184;-73
2021/05/11 19:10:31;;;;;;;;;;;;;;;16.99;51.69;99510.02;1823289;77;20799;-73
2021/05/11 19:13:05;;;;;;;;;;;;;;;16.89;51.65;99502.86;1821917;77;21179;-74
2021/05/11 19:15:46;;;;;;;;;;;;;;;16.75;52.59;99506.03;1795602;78;20196;-73
2021/05/11 19:18:12;;;;;;;;;;;;;;;16.58;52.77;99501.15;1821862;78;20214;-72
2021/05/11 19:20:40;;;;;;;;;;;;;;;16.44;54.15;99500.55;1789768;78;20141;-72
2021/05/11 19:23:09;;;;;;;;;;;;;;;16.33;54.64;99492.31;1823387;77;20290;-72
2021/05/11 19:25:39;;;;;;;;;;;;;;;16.24;55.04;99494.89;1786238;78;21087;-72
2021/05/11 19:28:05;;;;;;;;;;;;;;;16.18;55.47;99487.91;1819008;77;20165;-73
2021/05/11 19:30:32;;;;;;;;;;;;;;;16.18;56.07;99488.47;1819659;77;20181;-73
2021/05/11 19:33:02;;;;;;;;;;;;;;;16.06;56.52;99486.98;1816148;77;20211;-73
2021/05/11 19:35:30;;;;;;;;;;;;;;;15.98;56.15;99489.56;1818692;77;20532;-73
2021/05/11 19:38:02;;;;;;;;;;;;;;;15.96;56.82;99485.78;1809734;77;21098;-73
2021/05/11 19:40:29;;;;;;;;;;;;;;;15.98;56.59;99484.94;1816108;77;20167;-73
2021/05/11 19:43:00;;;;;;;;;;;;;;;15.93;56.96;99482.30;1817408;77;20137;-71
2021/05/11 19:45:28;;;;;;;;;;;;;;;15.97;56.89;99480.64;1766668;80;20159;-72
2021/05/11 19:47:54;;;;;;;;;;;;;;;15.98;57.24;99477.38;1797667;78;20594;-73
2021/05/11 19:50:21;;;;;;;;;;;;;;;15.94;57.26;99481.20;1807365;78;21849;-73
2021/05/11 19:52:48;;;;;;;;;;;;;;;15.90;57.48;99473.42;1810592;79;20173;-73